createdAt,value
2017-03-22T00:02:11.170Z,19.7
2017-03-22T00:07:12.405Z,19.8
2017-03-22T00:12:13.703Z,19.8
2017-03-22T00:17:15.021Z,19.9
2017-03-22T00:22:16.277Z,20
2017-03-22T00:27:17.614Z,20
2017-03-22T00:32:18.874Z,20.1
2017-03-22T00:37:20.171Z,20.2
2017-03-22T00:42:21.434Z,20.2
2017-03-22T00:47:22.732Z,20.3
2017-03-22T00:52:24.019Z,20.3
2017-03-22T00:57:25.257Z,20.3
2017-03-22T01:02:26.565Z,20.4
2017-03-22T01:07:27.878Z,20.3
2017-03-22T01:12:29.187Z,20.3
2017-03-22T01:17:30.492Z,20.2
2017-03-22T01:22:31.796Z,20.2
2017-03-22T01:27:33.082Z,20.1
2017-03-22T01:32:34.291Z,20
2017-03-22T01:37:35.575Z,19.9
2017-03-22T01:42:36.916Z,19.8
2017-03-22T01:47:38.171Z,19.7
2017-03-22T01:52:39.420Z,19.6
2017-03-22T01:57:40.731Z,19.6
2017-03-22T02:02:42.044Z,19.6
2017-03-22T02:07:43.351Z,19.5
2017-03-22T02:12:44.648Z,19.5
2017-03-22T02:17:45.861Z,19.5
2017-03-22T02:22:47.161Z,19.6
2017-03-22T02:27:48.376Z,19.6
2017-03-22T02:32:49.667Z,19.6
2017-03-22T02:37:50.962Z,19.6
2017-03-22T02:42:52.256Z,19.6
2017-03-22T02:47:53.553Z,19.7
2017-03-22T02:52:54.792Z,19.7
2017-03-22T02:57:56.090Z,19.8
2017-03-22T03:02:57.406Z,19.8
2017-03-22T03:07:58.716Z,19.9
2017-03-22T03:18:01.232Z,20
2017-03-22T03:23:02.563Z,20
2017-03-22T03:28:03.826Z,20
2017-03-22T03:33:05.188Z,20.1
2017-03-22T03:38:06.456Z,20.2
2017-03-22T03:43:07.743Z,20.2
2017-03-22T03:48:09.040Z,20.3
2017-03-22T03:53:10.335Z,20.3
2017-03-22T03:58:11.647Z,20.3
2017-03-22T04:03:12.954Z,20.4
2017-03-22T04:08:14.274Z,20.4
2017-03-22T04:13:15.525Z,20.5
2017-03-22T04:18:16.842Z,20.5
2017-03-22T04:23:18.111Z,20.6
2017-03-22T04:28:19.387Z,20.6
2017-03-22T04:33:20.655Z,20.6
2017-03-22T04:38:21.936Z,20.6
2017-03-22T04:43:23.203Z,20.6
2017-03-22T04:48:24.480Z,20.7
2017-03-22T04:53:25.761Z,20.6
2017-03-22T04:58:27.036Z,20.7
2017-03-22T05:03:28.387Z,20.6
2017-03-22T05:08:29.657Z,20.6
2017-03-22T05:13:30.932Z,20.6
2017-03-22T05:18:32.209Z,20.5
2017-03-22T05:23:33.479Z,20.5
2017-03-22T05:28:34.741Z,20.4
2017-03-22T05:33:36.076Z,20.4
2017-03-22T05:38:37.400Z,20.4
2017-03-22T05:43:38.653Z,20.4
2017-03-22T05:48:39.905Z,20.3
2017-03-22T05:53:41.149Z,20.3
2017-03-22T05:58:42.469Z,20.3
2017-03-22T06:03:43.772Z,20.3
2017-03-22T06:08:45.211Z,20.3
2017-03-22T06:13:46.406Z,20.3
2017-03-22T06:18:47.708Z,20.4
2017-03-22T06:23:49.025Z,20.4
2017-03-22T06:28:50.270Z,20.4
2017-03-22T06:33:51.512Z,20.4
2017-03-22T06:38:52.842Z,20.4
2017-03-22T06:43:54.169Z,20.5
2017-03-22T06:48:55.415Z,20.5
2017-03-22T06:53:56.688Z,20.6
2017-03-22T06:58:57.959Z,20.6
2017-03-22T07:03:59.256Z,20.6
2017-03-22T07:09:00.450Z,20.8
2017-03-22T07:14:01.808Z,20.8
2017-03-22T07:19:03.108Z,20.9
2017-03-22T07:24:04.334Z,21
2017-03-22T07:29:05.661Z,21
2017-03-22T07:34:06.981Z,21.1
2017-03-22T07:39:08.247Z,21.2
2017-03-22T07:44:09.590Z,21.3
2017-03-22T07:49:10.874Z,21.3
2017-03-22T07:54:12.172Z,21.4
2017-03-22T07:59:13.475Z,21.4
2017-03-22T08:04:14.770Z,21.4
2017-03-22T08:09:16.073Z,21.3
2017-03-22T08:14:17.320Z,21.4
2017-03-22T08:19:18.624Z,21.4
2017-03-22T08:24:19.940Z,21.4
2017-03-22T08:29:21.252Z,21.4
2017-03-22T08:34:22.505Z,21.4
2017-03-22T08:39:23.821Z,21.4
2017-03-22T08:44:25.136Z,21.4
2017-03-22T08:49:26.395Z,21.5
2017-03-22T08:54:27.710Z,21.5
2017-03-22T08:59:28.976Z,21.5
2017-03-22T09:04:30.228Z,21.5
2017-03-22T09:09:31.494Z,21.6
2017-03-22T09:14:32.765Z,21.6
2017-03-22T09:19:34.055Z,21.6
2017-03-22T09:24:35.342Z,21.7
2017-03-22T09:29:36.635Z,21.7
2017-03-22T09:34:37.925Z,21.7
2017-03-22T09:39:39.228Z,21.8
2017-03-22T09:44:40.525Z,21.8
2017-03-22T09:49:41.817Z,21.8
2017-03-22T09:54:43.122Z,21.9
2017-03-22T09:59:44.429Z,21.9
2017-03-22T10:04:45.661Z,22
2017-03-22T10:09:46.903Z,22
2017-03-22T10:14:48.152Z,22.1
2017-03-22T10:19:49.485Z,22.1
2017-03-22T10:24:50.751Z,22.2
2017-03-22T10:29:52.099Z,22.2
2017-03-22T10:34:53.379Z,22.3
2017-03-22T10:39:54.661Z,22.4
2017-03-22T10:44:55.952Z,22.4
2017-03-22T10:49:57.195Z,22.5
2017-03-22T10:54:58.502Z,22.6
2017-03-22T10:59:59.763Z,22.6
2017-03-22T11:05:00.952Z,22.7
2017-03-22T11:10:02.221Z,22.8
2017-03-22T11:20:04.808Z,23
2017-03-22T11:25:06.117Z,23
2017-03-22T11:30:07.393Z,23.1
2017-03-22T11:35:08.625Z,23.2
2017-03-22T11:40:09.892Z,23.2
2017-03-22T11:45:11.144Z,23.3
2017-03-22T11:50:12.429Z,23.3
2017-03-22T11:55:13.704Z,23.3
2017-03-22T12:00:14.985Z,23.3
2017-03-22T12:05:16.276Z,23.4
2017-03-22T12:10:17.574Z,23.5
2017-03-22T12:15:18.801Z,23.5
2017-03-22T12:20:20.041Z,23.5
2017-03-22T12:25:21.387Z,23.6
2017-03-22T12:30:22.604Z,23.7
2017-03-22T12:35:23.935Z,23.7
2017-03-22T12:40:25.203Z,23.7
2017-03-22T12:45:26.470Z,23.8
2017-03-22T12:50:27.741Z,23.8
2017-03-22T12:55:29.032Z,23.9
2017-03-22T13:00:30.295Z,23.9
2017-03-22T13:05:31.647Z,23.9
2017-03-22T13:10:32.931Z,24
2017-03-22T13:15:34.208Z,24
2017-03-22T13:20:35.502Z,24
2017-03-22T13:25:36.793Z,24.1
2017-03-22T13:30:38.105Z,24.1
2017-03-22T13:35:39.344Z,24.2
2017-03-22T13:40:40.589Z,24.2
2017-03-22T13:50:43.083Z,24.2
2017-03-22T13:55:44.419Z,24.3
2017-03-22T14:00:45.683Z,24.3
2017-03-22T14:05:46.959Z,24.3
2017-03-22T14:10:48.247Z,24.3
2017-03-22T14:15:49.526Z,24.4
2017-03-22T14:20:50.853Z,24.4
2017-03-22T14:25:52.091Z,24.4
2017-03-22T14:30:53.318Z,24.4
2017-03-22T14:35:54.610Z,24.4
2017-03-22T14:40:55.902Z,24.4
2017-03-22T14:45:57.115Z,24.4
2017-03-22T14:50:58.405Z,24.4
2017-03-22T14:55:59.696Z,24.4
2017-03-22T15:01:00.994Z,24.4
2017-03-22T15:06:02.285Z,24.4
2017-03-22T15:11:03.580Z,24.4
2017-03-22T15:16:04.881Z,24.4
2017-03-22T15:21:06.172Z,24.4
2017-03-22T15:26:07.400Z,24.4
2017-03-22T15:31:08.694Z,24.4
2017-03-22T15:36:09.980Z,24.4
2017-03-22T15:41:11.268Z,24.4
2017-03-22T15:46:12.553Z,24.3
2017-03-22T15:51:13.832Z,24.3
2017-03-22T15:56:15.117Z,24.3
2017-03-22T16:01:16.464Z,24.3
2017-03-22T16:06:17.752Z,24.3
2017-03-22T16:11:18.955Z,24.3
2017-03-22T16:16:20.238Z,24.3
2017-03-22T16:21:21.513Z,24.2
2017-03-22T16:26:22.784Z,24.2
2017-03-22T16:31:24.064Z,24.1
2017-03-22T16:36:25.327Z,24.1
2017-03-22T16:41:26.588Z,24.1
2017-03-22T16:46:27.924Z,24
2017-03-22T16:51:29.174Z,24
2017-03-22T16:56:30.488Z,23.9
2017-03-22T17:01:31.806Z,23.9
2017-03-22T17:06:33.120Z,23.8
2017-03-22T17:11:34.345Z,23.8
2017-03-22T17:16:35.645Z,23.7
2017-03-22T17:21:36.920Z,23.7
2017-03-22T17:26:38.205Z,23.6
2017-03-22T17:31:39.471Z,23.6
2017-03-22T17:36:40.733Z,23.4
2017-03-22T17:41:42.051Z,23.4
2017-03-22T17:46:43.361Z,23.3
2017-03-22T17:51:44.665Z,23.2
2017-03-22T17:56:46.102Z,23.1
2017-03-22T18:01:47.149Z,23
2017-03-22T18:06:48.400Z,22.8
2017-03-22T18:11:49.647Z,22.7
2017-03-22T18:16:50.978Z,22.6
2017-03-22T18:21:52.330Z,22.5
2017-03-22T18:26:53.579Z,22.4
2017-03-22T18:31:54.818Z,22.3
2017-03-22T18:36:56.098Z,22.2
2017-03-22T18:41:57.373Z,22.1
2017-03-22T18:46:58.615Z,21.9
2017-03-22T18:51:59.859Z,21.9
2017-03-22T18:57:01.191Z,21.8
2017-03-22T19:02:02.520Z,21.7
2017-03-22T19:07:03.689Z,21.6
2017-03-22T19:12:04.961Z,21.5
2017-03-22T19:17:06.231Z,21.5
2017-03-22T19:22:07.495Z,21.3
2017-03-22T19:27:08.742Z,21.3
2017-03-22T19:32:10.046Z,21.2
2017-03-22T19:37:11.357Z,21.1
2017-03-22T19:42:12.628Z,21
2017-03-22T19:47:13.897Z,20.9
2017-03-22T19:52:15.225Z,20.9
2017-03-22T19:57:16.547Z,20.8
2017-03-22T20:02:17.798Z,20.7
2017-03-22T20:07:19.033Z,20.7
2017-03-22T20:12:20.367Z,20.6
2017-03-22T20:17:21.623Z,20.6
2017-03-22T20:22:22.903Z,20.5
2017-03-22T20:27:24.193Z,20.5
2017-03-22T20:32:25.463Z,20.4
2017-03-22T20:37:26.729Z,20.3
2017-03-22T20:42:27.985Z,20.3
2017-03-22T20:47:29.329Z,20.2
2017-03-22T20:52:30.609Z,20.2
2017-03-22T20:57:31.912Z,20.2
2017-03-22T21:02:33.147Z,20.1
2017-03-22T21:07:34.378Z,20.1
2017-03-22T21:12:35.668Z,20
2017-03-22T21:17:36.944Z,20
2017-03-22T21:22:38.220Z,19.9
2017-03-22T21:27:39.503Z,19.9
2017-03-22T21:32:40.761Z,19.9
2017-03-22T21:37:42.022Z,19.9
2017-03-22T21:42:43.280Z,19.8
2017-03-22T21:47:44.607Z,19.8
2017-03-22T21:52:45.856Z,19.8
2017-03-22T21:57:47.181Z,19.7
2017-03-22T22:02:48.430Z,19.7
2017-03-22T22:07:49.733Z,19.6
2017-03-22T22:12:50.971Z,19.6
2017-03-22T22:17:52.272Z,19.6
2017-03-22T22:22:53.505Z,19.6
2017-03-22T22:27:54.800Z,19.5
2017-03-22T22:32:56.094Z,19.5
2017-03-22T22:37:57.381Z,19.4
2017-03-22T22:42:58.670Z,19.4
2017-03-22T22:48:00.016Z,19.4
2017-03-22T22:53:01.366Z,19.3
2017-03-22T22:58:02.639Z,19.3
2017-03-22T23:03:03.909Z,19.3
2017-03-22T23:08:05.183Z,19.3
2017-03-22T23:13:06.440Z,19.2
2017-03-22T23:18:07.760Z,19.2
2017-03-22T23:23:09.023Z,19.2
2017-03-22T23:28:10.337Z,19.1
2017-03-22T23:33:11.667Z,19.1
2017-03-22T23:38:12.978Z,19.2
2017-03-22T23:43:14.223Z,19.2
2017-03-22T23:48:15.458Z,19.1
2017-03-22T23:53:16.772Z,19.1
2017-03-22T23:58:18.083Z,19.2
